createdAt,value
2022-09-10T00:01:21.844Z,22.66
2022-09-10T00:03:49.605Z,22.61
2022-09-10T00:06:18.179Z,22.64
2022-09-10T00:08:46.608Z,22.85
2022-09-10T00:11:14.828Z,23.02
2022-09-10T00:13:43.210Z,22.91
2022-09-10T00:16:13.997Z,22.12
2022-09-10T00:18:43.150Z,21.22
2022-09-10T00:21:13.004Z,20.71
2022-09-10T00:23:40.528Z,21.09
2022-09-10T00:26:17.390Z,21.47
2022-09-10T00:28:44.848Z,21.98
2022-09-10T00:31:12.962Z,22.32
2022-09-10T00:33:41.253Z,22.55
2022-09-10T00:36:27.678Z,22.61
2022-09-10T00:38:58.999Z,22.60
2022-09-10T00:41:28.552Z,22.54
2022-09-10T00:43:57.546Z,22.39
2022-09-10T00:46:33.406Z,22.19
2022-09-10T00:49:14.099Z,21.98
2022-09-10T00:51:41.842Z,21.88
2022-09-10T00:54:08.956Z,21.85
2022-09-10T00:56:36.549Z,21.82
2022-09-10T00:59:05.382Z,21.79
2022-09-10T01:01:34.781Z,22.02
2022-09-10T01:04:03.750Z,22.27
2022-09-10T01:06:31.082Z,22.16
2022-09-10T01:08:58.960Z,22.11
2022-09-10T01:11:34.095Z,22.08
2022-09-10T01:14:15.822Z,22.02
2022-09-10T01:16:56.404Z,21.99
2022-09-10T01:19:55.700Z,22.00
2022-09-10T01:22:41.675Z,22.00
2022-09-10T01:25:30.914Z,21.92
2022-09-10T01:28:03.596Z,21.80
2022-09-10T01:30:37.345Z,21.86
2022-09-10T01:33:16.328Z,21.98
2022-09-10T01:35:53.506Z,21.94
2022-09-10T01:38:33.508Z,21.93
2022-09-10T01:41:01.130Z,22.14
2022-09-10T01:43:33.816Z,22.47
2022-09-10T01:46:10.372Z,22.62
2022-09-10T01:48:48.995Z,22.77
2022-09-10T01:51:53.617Z,22.81
2022-09-10T01:54:44.961Z,21.85
2022-09-10T01:57:41.065Z,20.98
2022-09-10T02:00:14.091Z,20.78
2022-09-10T02:03:17.621Z,21.59
2022-09-10T02:05:50.442Z,22.02
2022-09-10T02:08:31.179Z,22.12
2022-09-10T02:11:05.629Z,22.24
2022-09-10T02:13:35.869Z,22.44
2022-09-10T02:16:32.318Z,22.64
2022-09-10T02:19:01.402Z,22.46
2022-09-10T02:21:28.187Z,21.75
2022-09-10T02:24:05.416Z,21.02
2022-09-10T02:26:33.577Z,20.70
2022-09-10T02:29:04.220Z,21.29
2022-09-10T02:31:31.717Z,21.90
2022-09-10T02:33:58.929Z,22.28
2022-09-10T02:36:26.993Z,22.36
2022-09-10T02:38:58.036Z,22.42
2022-09-10T02:41:30.164Z,22.41
2022-09-10T02:44:16.098Z,22.45
2022-09-10T02:47:12.126Z,22.46
2022-09-10T02:49:39.639Z,22.49
2022-09-10T02:52:06.499Z,22.48
2022-09-10T02:54:35.630Z,22.57
2022-09-10T02:57:03.086Z,22.71
2022-09-10T02:59:32.145Z,22.74
2022-09-10T03:01:59.531Z,22.51
2022-09-10T03:04:26.381Z,21.80
2022-09-10T03:06:54.807Z,21.06
2022-09-10T03:09:22.523Z,20.67
2022-09-10T03:11:50.899Z,21.24
2022-09-10T03:14:21.734Z,21.67
2022-09-10T03:16:49.498Z,21.89
2022-09-10T03:19:16.238Z,22.03
2022-09-10T03:21:43.100Z,22.20
2022-09-10T03:24:13.381Z,22.28
2022-09-10T03:26:43.687Z,22.28
2022-09-10T03:29:11.390Z,22.28
2022-09-10T03:31:39.347Z,22.43
2022-09-10T03:34:06.333Z,22.50
2022-09-10T03:36:33.148Z,22.34
2022-09-10T03:38:59.964Z,22.26
2022-09-10T03:41:28.165Z,22.19
2022-09-10T03:43:57.775Z,22.13
2022-09-10T03:46:25.631Z,22.12
2022-09-10T03:48:55.372Z,22.14
2022-09-10T03:51:24.043Z,22.05
2022-09-10T03:53:51.448Z,21.94
2022-09-10T03:56:20.192Z,22.18
2022-09-10T03:58:48.611Z,22.26
2022-09-10T04:01:19.148Z,22.40
2022-09-10T04:03:47.369Z,22.77
2022-09-10T04:06:15.704Z,22.84
2022-09-10T04:08:43.931Z,22.15
2022-09-10T04:11:13.848Z,21.36
2022-09-10T04:13:41.163Z,20.91
2022-09-10T04:16:09.325Z,21.24
2022-09-10T04:18:36.415Z,21.45
2022-09-10T04:21:03.901Z,21.56
2022-09-10T04:23:32.351Z,21.74
2022-09-10T04:26:01.236Z,22.02
2022-09-10T04:28:27.970Z,22.10
2022-09-10T04:30:55.121Z,22.04
2022-09-10T04:33:24.437Z,22.06
2022-09-10T04:35:53.519Z,22.03
2022-09-10T04:38:20.476Z,21.95
2022-09-10T04:40:48.749Z,21.91
2022-09-10T04:43:16.454Z,21.80
2022-09-10T04:45:43.720Z,21.56
2022-09-10T04:48:10.707Z,21.54
2022-09-10T04:50:49.976Z,21.86
2022-09-10T04:53:22.178Z,21.91
2022-09-10T04:55:50.893Z,21.87
2022-09-10T04:58:18.357Z,21.96
2022-09-10T05:00:46.379Z,22.03
2022-09-10T05:03:14.296Z,21.90
2022-09-10T05:05:45.646Z,21.84
2022-09-10T05:08:13.812Z,21.82
2022-09-10T05:10:44.960Z,21.88
2022-09-10T05:13:11.910Z,21.77
2022-09-10T05:15:41.061Z,21.74
2022-09-10T05:18:08.244Z,21.65
2022-09-10T05:20:37.246Z,21.70
2022-09-10T05:23:04.604Z,21.71
2022-09-10T05:25:31.557Z,21.71
2022-09-10T05:28:00.665Z,22.00
2022-09-10T05:30:32.202Z,22.48
2022-09-10T05:33:00.808Z,22.90
2022-09-10T05:35:29.776Z,23.17
2022-09-10T05:37:57.019Z,23.35
2022-09-10T05:40:26.058Z,23.45
2022-09-10T05:42:56.044Z,23.32
2022-09-10T05:45:24.521Z,22.59
2022-09-10T05:47:54.040Z,21.82
2022-09-10T05:50:24.081Z,21.36
2022-09-10T05:52:53.038Z,21.72
2022-09-10T05:55:20.589Z,22.01
2022-09-10T05:57:48.764Z,21.99
2022-09-10T06:00:18.170Z,22.17
2022-09-10T06:02:50.645Z,22.39
2022-09-10T06:05:40.874Z,22.55
2022-09-10T06:08:08.896Z,22.67
2022-09-10T06:10:38.859Z,22.81
2022-09-10T06:13:06.416Z,22.64
2022-09-10T06:15:35.816Z,22.42
2022-09-10T06:18:03.927Z,22.41
2022-09-10T06:20:31.865Z,22.44
2022-09-10T06:22:59.924Z,22.72
2022-09-10T06:25:27.908Z,22.98
2022-09-10T06:27:56.067Z,23.17
2022-09-10T06:30:23.133Z,23.09
2022-09-10T06:32:50.684Z,23.07
2022-09-10T06:35:18.131Z,22.93
2022-09-10T06:37:45.203Z,22.84
2022-09-10T06:40:14.187Z,22.98
2022-09-10T06:42:42.449Z,23.01
2022-09-10T06:45:15.026Z,22.97
2022-09-10T06:51:04.222Z,23.12
2022-09-10T06:53:37.168Z,23.46
2022-09-10T06:56:08.511Z,23.59
2022-09-10T06:58:38.171Z,23.69
2022-09-10T07:01:13.015Z,23.60
2022-09-10T07:03:43.211Z,23.12
2022-09-10T07:06:13.028Z,22.62
2022-09-10T07:08:42.430Z,22.58
2022-09-10T07:11:14.371Z,23.25
2022-09-10T07:13:45.846Z,23.68
2022-09-10T07:16:19.423Z,23.22
2022-09-10T07:18:49.688Z,22.60
2022-09-10T07:21:19.550Z,22.79
2022-09-10T07:23:49.753Z,23.45
2022-09-10T07:26:22.997Z,23.56
2022-09-10T07:29:32.571Z,22.99
2022-09-10T07:32:04.295Z,22.23
2022-09-10T07:34:37.569Z,21.81
2022-09-10T07:37:08.055Z,22.12
2022-09-10T07:39:36.889Z,22.52
2022-09-10T07:42:15.107Z,22.24
2022-09-10T07:44:47.503Z,21.67
2022-09-10T07:47:15.701Z,21.27
2022-09-10T07:49:45.819Z,21.19
2022-09-10T07:52:14.490Z,21.88
2022-09-10T07:54:50.148Z,22.76
2022-09-10T07:57:17.837Z,22.68
2022-09-10T07:59:44.943Z,22.22
2022-09-10T08:02:16.032Z,21.82
2022-09-10T08:04:46.467Z,21.49
2022-09-10T08:07:17.030Z,21.18
2022-09-10T08:09:43.876Z,21.14
2022-09-10T08:12:15.845Z,21.95
2022-09-10T08:14:43.185Z,22.33
2022-09-10T08:17:10.520Z,21.84
2022-09-10T08:19:41.012Z,21.29
2022-09-10T08:22:12.796Z,20.93
2022-09-10T08:24:44.197Z,20.82
2022-09-10T08:27:11.750Z,21.58
2022-09-10T08:29:39.067Z,22.68
2022-09-10T08:32:07.582Z,22.85
2022-09-10T08:34:34.897Z,22.42
2022-09-10T08:37:08.127Z,22.12
2022-09-10T08:39:36.149Z,21.84
2022-09-10T08:42:23.988Z,21.61
2022-09-10T08:44:57.652Z,21.46
2022-09-10T08:48:03.721Z,21.26
2022-09-10T08:51:00.049Z,21.00
2022-09-10T08:53:44.329Z,21.46
2022-09-10T08:56:19.829Z,22.50
2022-09-10T08:58:58.553Z,22.84
2022-09-10T09:01:50.253Z,22.44
2022-09-10T09:04:39.855Z,22.11
2022-09-10T09:07:16.611Z,21.88
2022-09-10T09:09:51.208Z,21.78
2022-09-10T09:12:48.106Z,21.72
2022-09-10T09:15:21.704Z,21.68
2022-09-10T09:18:15.233Z,21.67
2022-09-10T09:20:46.628Z,21.63
2022-09-10T09:24:11.757Z,21.57
2022-09-10T09:26:38.069Z,21.44
2022-09-10T09:29:35.012Z,21.38
2022-09-10T09:32:05.378Z,21.32
2022-09-10T09:34:38.587Z,21.32
2022-09-10T09:37:17.052Z,21.29
2022-09-10T09:39:52.432Z,21.27
2022-09-10T09:42:20.726Z,21.26
2022-09-10T09:44:57.638Z,21.23
2022-09-10T09:47:25.528Z,21.24
2022-09-10T09:49:53.584Z,21.26
2022-09-10T09:52:23.820Z,21.30
2022-09-10T09:55:14.335Z,21.34
2022-09-10T09:57:42.375Z,21.38
2022-09-10T10:00:33.192Z,21.43
2022-09-10T10:03:17.669Z,21.47
2022-09-10T10:05:46.615Z,21.46
2022-09-10T10:08:59.965Z,21.47
2022-09-10T10:11:41.838Z,21.49
2022-09-10T10:14:13.970Z,21.54
2022-09-10T10:16:41.805Z,21.63
2022-09-10T10:19:39.679Z,21.74
2022-09-10T10:22:20.203Z,21.80
2022-09-10T10:24:51.457Z,21.88
2022-09-10T10:27:36.049Z,21.97
2022-09-10T10:30:16.785Z,22.07
2022-09-10T10:33:04.019Z,22.13
2022-09-10T10:35:58.410Z,22.13
2022-09-10T10:38:35.783Z,22.12
2022-09-10T10:41:09.088Z,22.05
2022-09-10T10:43:55.300Z,21.97
2022-09-10T10:46:46.130Z,21.97
2022-09-10T10:49:28.502Z,21.89
2022-09-10T10:52:04.659Z,21.88
2022-09-10T10:54:51.935Z,21.89
2022-09-10T10:57:30.226Z,21.97
2022-09-10T11:00:10.429Z,22.00
2022-09-10T11:02:55.719Z,22.08
2022-09-10T11:05:42.475Z,22.16
2022-09-10T11:08:20.180Z,22.20
2022-09-10T11:10:56.413Z,22.32
2022-09-10T11:13:59.394Z,22.44
2022-09-10T11:16:41.403Z,22.55
2022-09-10T11:19:36.227Z,22.69
2022-09-10T11:22:18.817Z,22.79
2022-09-10T11:24:53.522Z,22.85
2022-09-10T11:27:29.208Z,22.89
2022-09-10T11:30:11.725Z,22.86
2022-09-10T11:32:44.518Z,22.86
2022-09-10T11:35:32.649Z,22.83
2022-09-10T11:38:04.324Z,22.78
2022-09-10T11:40:47.576Z,22.78
2022-09-10T11:43:29.033Z,22.83
2022-09-10T11:46:05.118Z,22.93
2022-09-10T11:49:11.272Z,22.97
2022-09-10T11:51:52.828Z,22.95
2022-09-10T11:54:34.350Z,22.97
2022-09-10T11:57:28.532Z,22.98
2022-09-10T11:59:58.650Z,22.96
2022-09-10T12:02:34.407Z,23.02
2022-09-10T12:05:20.089Z,23.00
2022-09-10T12:08:17.081Z,22.90
2022-09-10T12:11:04.286Z,22.74
2022-09-10T12:13:35.420Z,22.60
2022-09-10T12:16:18.690Z,22.44
2022-09-10T12:18:52.357Z,22.26
2022-09-10T12:21:32.512Z,22.13
2022-09-10T12:24:03.161Z,22.01
2022-09-10T12:26:48.830Z,21.94
2022-09-10T12:29:32.695Z,21.89
2022-09-10T12:32:09.277Z,21.86
2022-09-10T12:34:37.258Z,21.86
2022-09-10T12:37:04.177Z,21.88
2022-09-10T12:39:31.742Z,21.91
2022-09-10T12:42:22.402Z,21.94
2022-09-10T12:44:49.524Z,21.95
2022-09-10T12:47:17.326Z,21.94
2022-09-10T12:49:56.226Z,21.92
2022-09-10T12:52:47.329Z,21.92
2022-09-10T12:55:28.500Z,21.98
2022-09-10T12:58:31.852Z,22.06
2022-09-10T13:01:11.392Z,22.14
2022-09-10T13:03:51.295Z,22.19
2022-09-10T13:06:18.867Z,22.23
2022-09-10T13:08:49.961Z,22.28
2022-09-10T13:11:23.760Z,22.35
2022-09-10T13:14:02.537Z,22.43
2022-09-10T13:16:29.390Z,22.53
2022-09-10T13:19:17.015Z,22.65
2022-09-10T13:21:43.962Z,22.74
2022-09-10T13:24:35.800Z,22.78
2022-09-10T13:27:35.732Z,22.77
2022-09-10T13:30:19.906Z,22.77
2022-09-10T13:32:53.075Z,22.78
2022-09-10T13:35:55.005Z,22.80
2022-09-10T13:39:03.168Z,22.82
2022-09-10T13:41:49.681Z,22.83
2022-09-10T13:44:45.885Z,22.84
2022-09-10T13:47:20.937Z,22.86
2022-09-10T13:50:11.866Z,22.91
2022-09-10T13:52:43.007Z,22.98
2022-09-10T13:55:23.575Z,23.01
2022-09-10T13:57:54.709Z,23.03
2022-09-10T14:00:29.263Z,23.07
2022-09-10T14:03:01.381Z,23.12
2022-09-10T14:05:44.356Z,23.13
2022-09-10T14:08:23.271Z,23.11
2022-09-10T14:11:07.124Z,23.13
2022-09-10T14:13:46.975Z,23.19
2022-09-10T14:16:30.223Z,23.26
2022-09-10T14:19:04.032Z,23.37
2022-09-10T14:21:34.212Z,23.44
2022-09-10T14:24:02.093Z,23.48
2022-09-10T14:26:34.199Z,23.47
2022-09-10T14:29:24.244Z,23.45
2022-09-10T14:31:52.014Z,23.38
2022-09-10T14:34:31.768Z,23.37
2022-09-10T14:37:33.944Z,23.39
2022-09-10T14:40:05.235Z,23.40
2022-09-10T14:42:35.614Z,23.35
2022-09-10T14:45:07.083Z,23.36
2022-09-10T14:47:38.284Z,23.37
2022-09-10T14:50:30.776Z,23.36
2022-09-10T14:53:00.137Z,23.35
2022-09-10T14:55:31.645Z,23.33
2022-09-10T14:58:00.710Z,23.30
2022-09-10T15:00:33.431Z,23.24
2022-09-10T15:03:03.940Z,23.16
2022-09-10T15:05:33.272Z,23.04
2022-09-10T15:08:03.995Z,22.90
2022-09-10T15:10:32.041Z,22.77
2022-09-10T15:13:00.341Z,22.62
2022-09-10T15:15:29.228Z,22.49
2022-09-10T15:17:57.010Z,22.36
2022-09-10T16:31:27.140Z,21.12
2022-09-10T16:33:58.191Z,21.29
2022-09-10T16:36:28.243Z,22.25
2022-09-10T16:38:57.274Z,22.42
2022-09-10T16:41:25.669Z,21.95
2022-09-10T16:43:53.153Z,21.51
2022-09-10T16:46:20.723Z,21.17
2022-09-10T16:48:52.505Z,20.89
2022-09-10T16:51:23.100Z,20.64
2022-09-10T16:53:57.650Z,20.43
2022-09-10T16:56:25.304Z,20.37
2022-09-10T16:58:52.816Z,21.13
2022-09-10T17:01:21.498Z,22.45
2022-09-10T17:03:50.646Z,23.12
2022-09-10T17:06:23.805Z,22.69
2022-09-10T17:08:53.260Z,22.06
2022-09-10T17:11:22.278Z,21.57
2022-09-10T17:13:50.396Z,21.21
2022-09-10T17:16:25.463Z,21.21
2022-09-10T17:19:01.205Z,22.32
2022-09-10T17:21:34.040Z,22.95
2022-09-10T17:24:03.171Z,22.44
2022-09-10T17:26:32.685Z,21.78
2022-09-10T17:29:03.952Z,21.26
2022-09-10T17:31:34.278Z,20.85
2022-09-10T17:34:03.183Z,20.78
2022-09-10T17:36:32.617Z,21.66
2022-09-10T17:39:00.461Z,22.53
2022-09-10T17:41:29.365Z,22.91
2022-09-10T17:43:58.886Z,22.39
2022-09-10T17:46:26.807Z,21.68
2022-09-10T17:48:54.112Z,21.13
2022-09-10T17:51:23.914Z,20.95
2022-09-10T17:53:54.825Z,21.66
2022-09-10T17:56:25.286Z,22.46
2022-09-10T17:59:01.472Z,23.00
2022-09-10T18:01:36.340Z,23.21
2022-09-10T18:04:06.384Z,22.63
2022-09-10T18:06:37.675Z,21.99
2022-09-10T18:09:05.912Z,21.51
2022-09-10T18:11:36.149Z,21.14
2022-09-10T18:14:04.460Z,21.03
2022-09-10T18:16:34.194Z,21.64
2022-09-10T18:19:12.952Z,22.25
2022-09-10T18:21:43.821Z,22.70
2022-09-10T18:24:15.721Z,22.97
2022-09-10T18:26:48.352Z,23.17
2022-09-10T18:29:18.336Z,23.14
2022-09-10T18:31:49.997Z,22.53
2022-09-10T18:34:23.258Z,21.88
2022-09-10T18:36:55.489Z,21.35
2022-09-10T18:39:25.319Z,21.07
2022-09-10T18:41:55.277Z,21.61
2022-09-10T18:44:27.527Z,22.18
2022-09-10T18:46:55.488Z,22.05
2022-09-10T18:49:24.948Z,21.33
2022-09-10T18:51:54.605Z,20.76
2022-09-10T18:54:24.097Z,20.82
2022-09-10T18:56:53.874Z,20.97
2022-09-10T18:59:24.256Z,20.94
2022-09-10T19:01:53.476Z,20.87
2022-09-10T19:04:24.136Z,20.83
2022-09-10T19:06:52.898Z,21.31
2022-09-10T19:09:28.649Z,21.73
2022-09-10T19:11:58.386Z,21.84
2022-09-10T19:14:32.353Z,22.15
2022-09-10T19:17:00.881Z,22.44
2022-09-10T19:19:31.479Z,22.76
2022-09-10T19:22:06.564Z,22.87
2022-09-10T19:27:47.964Z,21.43
2022-09-10T19:30:16.158Z,21.15
2022-09-10T19:32:43.413Z,21.84
2022-09-10T19:35:12.312Z,22.60
2022-09-10T19:37:42.699Z,23.14
2022-09-10T19:40:11.501Z,23.20
2022-09-10T19:42:39.061Z,22.42
2022-09-10T19:45:10.209Z,21.55
2022-09-10T19:47:38.156Z,21.05
2022-09-10T19:50:05.808Z,21.47
2022-09-10T19:52:36.847Z,21.74
2022-09-10T19:55:10.689Z,21.89
2022-09-10T19:57:42.984Z,21.95
2022-09-10T20:00:36.055Z,22.14
2022-09-10T20:03:08.129Z,22.65
2022-09-10T20:05:38.346Z,22.80
2022-09-10T20:08:09.497Z,22.17
2022-09-10T20:10:39.958Z,21.41
2022-09-10T20:13:09.988Z,20.81
2022-09-10T20:15:43.529Z,20.53
2022-09-10T20:18:14.666Z,20.99
2022-09-10T20:20:43.204Z,21.93
2022-09-10T20:23:11.516Z,22.83
2022-09-10T20:25:42.987Z,22.94
2022-09-10T20:28:21.608Z,22.02
2022-09-10T20:30:53.082Z,21.05
2022-09-10T20:33:22.773Z,20.56
2022-09-10T20:35:51.319Z,21.32
2022-09-10T20:38:20.459Z,22.13
2022-09-10T20:40:48.402Z,22.59
2022-09-10T20:43:16.401Z,22.93
2022-09-10T20:45:44.061Z,23.00
2022-09-10T20:48:11.672Z,22.23
2022-09-10T20:50:39.359Z,21.38
2022-09-10T20:53:08.149Z,20.66
2022-09-10T20:55:36.250Z,20.40
2022-09-10T20:58:04.632Z,21.19
2022-09-10T21:00:33.513Z,21.80
2022-09-10T21:03:03.397Z,22.01
2022-09-10T21:05:31.218Z,21.37
2022-09-10T21:08:02.129Z,20.46
2022-09-10T21:10:35.080Z,20.00
2022-09-10T21:13:05.274Z,20.80
2022-09-10T21:15:33.404Z,21.53
2022-09-10T21:18:00.705Z,21.76
2022-09-10T21:20:28.067Z,21.16
2022-09-10T21:22:55.797Z,20.27
2022-09-10T21:25:25.869Z,19.82
2022-09-10T21:27:53.410Z,20.42
2022-09-10T21:30:20.795Z,20.98
2022-09-10T21:32:48.175Z,21.46
2022-09-10T21:35:15.851Z,21.78
2022-09-10T21:37:43.830Z,22.08
2022-09-10T21:40:11.329Z,22.32
2022-09-10T21:42:39.062Z,22.34
2022-09-10T21:45:06.754Z,21.53
2022-09-10T21:47:34.937Z,20.65
2022-09-10T21:50:03.830Z,19.95
2022-09-10T21:52:30.977Z,19.48
2022-09-10T21:54:58.995Z,19.42
2022-09-10T21:57:27.078Z,20.06
2022-09-10T21:59:54.787Z,20.88
2022-09-10T22:02:23.681Z,21.44
2022-09-10T22:04:50.616Z,21.70
2022-09-10T22:07:17.589Z,22.01
2022-09-10T22:09:45.118Z,22.25
2022-09-10T22:12:11.883Z,21.95
2022-09-10T22:14:39.204Z,21.04
2022-09-10T22:17:05.905Z,20.21
2022-09-10T22:19:32.728Z,19.82
2022-09-10T22:21:59.470Z,20.42
2022-09-10T22:24:26.274Z,21.05
2022-09-10T22:26:53.932Z,21.36
2022-09-10T22:29:20.822Z,21.70
2022-09-10T22:31:48.507Z,22.10
2022-09-10T22:34:17.232Z,22.14
2022-09-10T22:36:46.099Z,21.32
2022-09-10T22:39:18.720Z,20.43
2022-09-10T22:41:47.187Z,19.70
2022-09-10T22:44:14.414Z,19.43
2022-09-10T22:46:42.085Z,20.26
2022-09-10T22:49:10.115Z,20.92
2022-09-10T22:51:40.429Z,21.53
2022-09-10T22:54:08.392Z,21.87
2022-09-10T22:56:35.337Z,22.03
2022-09-10T22:59:03.492Z,21.88
2022-09-10T23:01:34.869Z,21.11
2022-09-10T23:04:04.338Z,20.31
2022-09-10T23:06:33.836Z,19.89
2022-09-10T23:09:07.726Z,20.30
2022-09-10T23:11:36.334Z,20.83
2022-09-10T23:14:06.532Z,21.28
2022-09-10T23:16:39.275Z,21.56
2022-09-10T23:19:10.819Z,21.53
2022-09-10T23:21:42.021Z,21.43
2022-09-10T23:24:12.485Z,21.38
2022-09-10T23:26:39.927Z,21.38
2022-09-10T23:29:07.461Z,21.35
2022-09-10T23:31:36.322Z,21.32
2022-09-10T23:34:22.184Z,21.24
2022-09-10T23:36:49.699Z,21.19
2022-09-10T23:39:21.597Z,21.19
2022-09-10T23:41:50.141Z,21.11
2022-09-10T23:44:17.462Z,21.07
2022-09-10T23:46:44.769Z,21.07
2022-09-10T23:49:12.336Z,20.97
2022-09-10T23:51:40.183Z,20.79
2022-09-10T23:54:08.185Z,20.64
2022-09-10T23:56:34.884Z,20.59
2022-09-10T23:59:02.907Z,20.56
